sensor_id;sensor_type;location;lat;lon;timestamp;P1;durP1;ratioP1;P2;durP2;ratioP2
69779;SDS011;57052;55.602;38.096;2022-07-18T00:00:08;10.05;;;5.18;;
69779;SDS011;57052;55.602;38.096;2022-07-18T00:02:34;8.32;;;5.22;;
69779;SDS011;57052;55.602;38.096;2022-07-18T00:05:00;8.40;;;5.25;;
69779;SDS011;57052;55.602;38.096;2022-07-18T00:07:26;10.40;;;5.82;;
69779;SDS011;57052;55.602;38.096;2022-07-18T00:09:52;8.45;;;5.30;;
69779;SDS011;57052;55.602;38.096;2022-07-18T00:12:17;9.40;;;5.45;;
69779;SDS011;57052;55.602;38.096;2022-07-18T00:14:43;10.63;;;5.57;;
69779;SDS011;57052;55.602;38.096;2022-07-18T00:17:09;7.53;;;5.03;;
69779;SDS011;57052;55.602;38.096;2022-07-18T00:19:35;12.25;;;5.50;;
69779;SDS011;57052;55.602;38.096;2022-07-18T00:22:02;10.38;;;5.80;;
69779;SDS011;57052;55.602;38.096;2022-07-18T00:24:28;8.23;;;5.43;;
69779;SDS011;57052;55.602;38.096;2022-07-18T00:26:54;8.40;;;5.35;;
69779;SDS011;57052;55.602;38.096;2022-07-18T00:29:19;9.82;;;5.22;;
69779;SDS011;57052;55.602;38.096;2022-07-18T00:31:45;9.98;;;5.43;;
69779;SDS011;57052;55.602;38.096;2022-07-18T00:34:11;8.20;;;5.88;;
69779;SDS011;57052;55.602;38.096;2022-07-18T00:36:36;9.93;;;6.10;;
69779;SDS011;57052;55.602;38.096;2022-07-18T00:39:02;13.23;;;6.05;;
69779;SDS011;57052;55.602;38.096;2022-07-18T00:41:29;11.15;;;5.80;;
69779;SDS011;57052;55.602;38.096;2022-07-18T00:43:54;11.80;;;6.10;;
69779;SDS011;57052;55.602;38.096;2022-07-18T00:46:22;8.98;;;5.95;;
69779;SDS011;57052;55.602;38.096;2022-07-18T00:48:49;11.75;;;5.82;;
69779;SDS011;57052;55.602;38.096;2022-07-18T00:51:15;10.15;;;5.75;;
69779;SDS011;57052;55.602;38.096;2022-07-18T00:53:42;12.32;;;5.85;;
69779;SDS011;57052;55.602;38.096;2022-07-18T00:56:08;9.65;;;5.93;;
69779;SDS011;57052;55.602;38.096;2022-07-18T00:58:34;9.50;;;5.70;;
69779;SDS011;57052;55.602;38.096;2022-07-18T01:01:00;10.88;;;5.70;;
69779;SDS011;57052;55.602;38.096;2022-07-18T01:03:44;12.43;;;5.80;;
69779;SDS011;57052;55.602;38.096;2022-07-18T01:06:10;10.32;;;6.00;;
69779;SDS011;57052;55.602;38.096;2022-07-18T01:08:36;11.05;;;5.68;;
69779;SDS011;57052;55.602;38.096;2022-07-18T01:11:03;9.07;;;5.72;;
69779;SDS011;57052;55.602;38.096;2022-07-18T01:13:29;10.02;;;6.10;;
69779;SDS011;57052;55.602;38.096;2022-07-18T01:15:54;10.68;;;6.25;;
69779;SDS011;57052;55.602;38.096;2022-07-18T01:18:20;10.27;;;6.45;;
69779;SDS011;57052;55.602;38.096;2022-07-18T01:20:45;12.05;;;6.35;;
69779;SDS011;57052;55.602;38.096;2022-07-18T01:23:11;10.23;;;6.28;;
69779;SDS011;57052;55.602;38.096;2022-07-18T01:25:37;10.35;;;6.15;;
69779;SDS011;57052;55.602;38.096;2022-07-18T01:28:02;10.80;;;6.32;;
69779;SDS011;57052;55.602;38.096;2022-07-18T01:30:28;11.30;;;6.60;;
69779;SDS011;57052;55.602;38.096;2022-07-18T01:32:54;12.15;;;6.43;;
69779;SDS011;57052;55.602;38.096;2022-07-18T01:35:25;9.38;;;6.28;;
69779;SDS011;57052;55.602;38.096;2022-07-18T01:37:52;12.15;;;6.30;;
69779;SDS011;57052;55.602;38.096;2022-07-18T01:40:19;13.98;;;6.20;;
69779;SDS011;57052;55.602;38.096;2022-07-18T01:42:45;10.00;;;5.63;;
69779;SDS011;57052;55.602;38.096;2022-07-18T01:45:11;9.70;;;6.03;;
69779;SDS011;57052;55.602;38.096;2022-07-18T01:47:37;13.23;;;5.95;;
69779;SDS011;57052;55.602;38.096;2022-07-18T01:50:03;11.15;;;5.70;;
69779;SDS011;57052;55.602;38.096;2022-07-18T01:52:29;11.70;;;6.03;;
69779;SDS011;57052;55.602;38.096;2022-07-18T01:54:55;9.02;;;5.28;;
69779;SDS011;57052;55.602;38.096;2022-07-18T01:57:21;11.35;;;5.68;;
69779;SDS011;57052;55.602;38.096;2022-07-18T01:59:46;9.30;;;5.90;;
69779;SDS011;57052;55.602;38.096;2022-07-18T02:02:12;11.38;;;5.80;;
69779;SDS011;57052;55.602;38.096;2022-07-18T02:04:38;8.38;;;5.05;;
69779;SDS011;57052;55.602;38.096;2022-07-18T02:07:22;8.63;;;5.22;;
69779;SDS011;57052;55.602;38.096;2022-07-18T02:09:47;10.70;;;4.68;;
69779;SDS011;57052;55.602;38.096;2022-07-18T02:12:13;11.63;;;5.15;;
69779;SDS011;57052;55.602;38.096;2022-07-18T02:14:39;7.88;;;4.68;;
69779;SDS011;57052;55.602;38.096;2022-07-18T02:17:04;8.80;;;4.50;;
69779;SDS011;57052;55.602;38.096;2022-07-18T02:19:30;10.27;;;4.93;;
69779;SDS011;57052;55.602;38.096;2022-07-18T02:21:55;9.55;;;5.10;;
69779;SDS011;57052;55.602;38.096;2022-07-18T02:24:21;12.10;;;5.03;;
69779;SDS011;57052;55.602;38.096;2022-07-18T02:26:47;7.82;;;4.57;;
69779;SDS011;57052;55.602;38.096;2022-07-18T02:29:12;9.95;;;4.82;;
69779;SDS011;57052;55.602;38.096;2022-07-18T02:31:38;10.02;;;4.93;;
69779;SDS011;57052;55.602;38.096;2022-07-18T02:34:04;12.35;;;4.80;;
69779;SDS011;57052;55.602;38.096;2022-07-18T02:36:37;9.63;;;4.82;;
69779;SDS011;57052;55.602;38.096;2022-07-18T02:39:05;10.82;;;5.50;;
69779;SDS011;57052;55.602;38.096;2022-07-18T02:41:31;9.20;;;5.00;;
69779;SDS011;57052;55.602;38.096;2022-07-18T02:43:58;8.68;;;5.03;;
69779;SDS011;57052;55.602;38.096;2022-07-18T02:46:23;9.25;;;5.28;;
69779;SDS011;57052;55.602;38.096;2022-07-18T02:48:49;9.73;;;5.55;;
69779;SDS011;57052;55.602;38.096;2022-07-18T02:51:15;10.52;;;5.50;;
69779;SDS011;57052;55.602;38.096;2022-07-18T02:53:40;10.80;;;5.80;;
69779;SDS011;57052;55.602;38.096;2022-07-18T02:56:06;9.85;;;5.07;;
69779;SDS011;57052;55.602;38.096;2022-07-18T02:58:32;8.60;;;5.18;;
69779;SDS011;57052;55.602;38.096;2022-07-18T03:00:58;10.38;;;5.72;;
69779;SDS011;57052;55.602;38.096;2022-07-18T03:03:23;8.23;;;5.00;;
69779;SDS011;57052;55.602;38.096;2022-07-18T03:05:49;9.93;;;5.57;;
69779;SDS011;57052;55.602;38.096;2022-07-18T03:08:15;9.27;;;5.25;;
69779;SDS011;57052;55.602;38.096;2022-07-18T03:10:41;9.98;;;5.55;;
69779;SDS011;57052;55.602;38.096;2022-07-18T03:13:07;14.32;;;7.50;;
69779;SDS011;57052;55.602;38.096;2022-07-18T03:15:32;14.48;;;8.07;;
69779;SDS011;57052;55.602;38.096;2022-07-18T03:17:58;13.02;;;8.15;;
69779;SDS011;57052;55.602;38.096;2022-07-18T03:20:24;15.73;;;7.97;;
69779;SDS011;57052;55.602;38.096;2022-07-18T03:22:49;15.50;;;7.75;;
69779;SDS011;57052;55.602;38.096;2022-07-18T03:25:15;13.50;;;7.90;;
69779;SDS011;57052;55.602;38.096;2022-07-18T03:27:41;13.80;;;7.95;;
69779;SDS011;57052;55.602;38.096;2022-07-18T03:30:07;13.77;;;7.93;;
69779;SDS011;57052;55.602;38.096;2022-07-18T03:32:33;14.43;;;7.28;;
69779;SDS011;57052;55.602;38.096;2022-07-18T03:34:58;11.75;;;6.00;;
69779;SDS011;57052;55.602;38.096;2022-07-18T03:37:24;10.80;;;6.72;;
69779;SDS011;57052;55.602;38.096;2022-07-18T03:39:49;9.95;;;5.15;;
69779;SDS011;57052;55.602;38.096;2022-07-18T03:42:15;10.45;;;6.03;;
69779;SDS011;57052;55.602;38.096;2022-07-18T03:44:40;10.85;;;5.35;;
69779;SDS011;57052;55.602;38.096;2022-07-18T03:47:06;11.85;;;5.47;;
69779;SDS011;57052;55.602;38.096;2022-07-18T03:49:31;9.57;;;5.10;;
69779;SDS011;57052;55.602;38.096;2022-07-18T03:51:57;11.40;;;5.45;;
69779;SDS011;57052;55.602;38.096;2022-07-18T03:54:22;8.52;;;5.03;;
69779;SDS011;57052;55.602;38.096;2022-07-18T03:56:49;9.80;;;5.03;;
69779;SDS011;57052;55.602;38.096;2022-07-18T03:59:15;8.48;;;5.43;;
69779;SDS011;57052;55.602;38.096;2022-07-18T04:01:41;11.02;;;4.97;;
69779;SDS011;57052;55.602;38.096;2022-07-18T04:04:06;8.98;;;4.80;;
69779;SDS011;57052;55.602;38.096;2022-07-18T04:06:32;8.55;;;4.82;;
69779;SDS011;57052;55.602;38.096;2022-07-18T04:08:57;7.63;;;4.20;;
69779;SDS011;57052;55.602;38.096;2022-07-18T04:11:23;7.97;;;4.88;;
69779;SDS011;57052;55.602;38.096;2022-07-18T04:13:52;6.72;;;4.60;;
69779;SDS011;57052;55.602;38.096;2022-07-18T04:16:19;9.07;;;4.57;;
69779;SDS011;57052;55.602;38.096;2022-07-18T04:18:45;7.80;;;4.25;;
69779;SDS011;57052;55.602;38.096;2022-07-18T04:21:10;10.30;;;5.05;;
69779;SDS011;57052;55.602;38.096;2022-07-18T04:23:36;9.13;;;4.70;;
69779;SDS011;57052;55.602;38.096;2022-07-18T04:26:02;10.05;;;4.45;;
69779;SDS011;57052;55.602;38.096;2022-07-18T04:28:29;6.68;;;4.20;;
69779;SDS011;57052;55.602;38.096;2022-07-18T04:30:54;6.05;;;3.83;;
69779;SDS011;57052;55.602;38.096;2022-07-18T04:33:20;6.95;;;3.97;;
69779;SDS011;57052;55.602;38.096;2022-07-18T04:35:46;7.40;;;4.03;;
69779;SDS011;57052;55.602;38.096;2022-07-18T04:38:13;7.25;;;3.88;;
69779;SDS011;57052;55.602;38.096;2022-07-18T04:40:38;7.05;;;3.97;;
69779;SDS011;57052;55.602;38.096;2022-07-18T04:43:04;6.47;;;3.92;;
69779;SDS011;57052;55.602;38.096;2022-07-18T04:45:31;8.55;;;4.35;;
69779;SDS011;57052;55.602;38.096;2022-07-18T04:47:56;7.65;;;4.07;;
69779;SDS011;57052;55.602;38.096;2022-07-18T04:50:22;8.73;;;4.28;;
69779;SDS011;57052;55.602;38.096;2022-07-18T04:52:49;7.60;;;4.32;;
69779;SDS011;57052;55.602;38.096;2022-07-18T04:55:16;8.05;;;4.03;;
69779;SDS011;57052;55.602;38.096;2022-07-18T04:57:43;8.32;;;5.03;;
69779;SDS011;57052;55.602;38.096;2022-07-18T05:00:10;9.30;;;5.05;;
69779;SDS011;57052;55.602;38.096;2022-07-18T05:02:39;8.30;;;4.70;;
69779;SDS011;57052;55.602;38.096;2022-07-18T05:05:08;8.32;;;4.53;;
69779;SDS011;57052;55.602;38.096;2022-07-18T05:07:36;7.57;;;4.65;;
69779;SDS011;57052;55.602;38.096;2022-07-18T05:10:02;7.57;;;5.00;;
69779;SDS011;57052;55.602;38.096;2022-07-18T05:12:33;11.60;;;5.72;;
69779;SDS011;57052;55.602;38.096;2022-07-18T05:15:04;10.75;;;6.53;;
69779;SDS011;57052;55.602;38.096;2022-07-18T05:17:31;11.70;;;6.32;;
69779;SDS011;57052;55.602;38.096;2022-07-18T05:19:57;11.27;;;6.18;;
69779;SDS011;57052;55.602;38.096;2022-07-18T05:22:22;12.55;;;6.57;;
69779;SDS011;57052;55.602;38.096;2022-07-18T05:24:48;12.50;;;6.72;;
69779;SDS011;57052;55.602;38.096;2022-07-18T05:27:14;12.25;;;6.60;;
69779;SDS011;57052;55.602;38.096;2022-07-18T05:29:39;14.65;;;6.53;;
69779;SDS011;57052;55.602;38.096;2022-07-18T05:32:05;14.02;;;7.13;;
69779;SDS011;57052;55.602;38.096;2022-07-18T05:34:32;9.32;;;6.47;;
69779;SDS011;57052;55.602;38.096;2022-07-18T05:36:58;12.73;;;6.88;;
69779;SDS011;57052;55.602;38.096;2022-07-18T05:39:24;12.05;;;6.70;;
69779;SDS011;57052;55.602;38.096;2022-07-18T05:41:50;11.82;;;7.07;;
69779;SDS011;57052;55.602;38.096;2022-07-18T05:44:15;9.45;;;6.57;;
69779;SDS011;57052;55.602;38.096;2022-07-18T05:46:41;15.32;;;6.90;;
69779;SDS011;57052;55.602;38.096;2022-07-18T05:49:06;12.30;;;6.78;;
69779;SDS011;57052;55.602;38.096;2022-07-18T05:51:32;9.77;;;6.28;;
69779;SDS011;57052;55.602;38.096;2022-07-18T05:53:57;9.32;;;6.00;;
69779;SDS011;57052;55.602;38.096;2022-07-18T05:56:23;7.68;;;5.25;;
69779;SDS011;57052;55.602;38.096;2022-07-18T05:58:49;8.38;;;5.65;;
69779;SDS011;57052;55.602;38.096;2022-07-18T06:01:14;8.70;;;4.50;;
69779;SDS011;57052;55.602;38.096;2022-07-18T06:03:45;8.68;;;4.65;;
69779;SDS011;57052;55.602;38.096;2022-07-18T06:06:13;7.75;;;4.38;;
69779;SDS011;57052;55.602;38.096;2022-07-18T06:08:40;8.73;;;4.88;;
69779;SDS011;57052;55.602;38.096;2022-07-18T06:11:06;10.25;;;4.43;;
69779;SDS011;57052;55.602;38.096;2022-07-18T06:13:33;6.93;;;3.50;;
69779;SDS011;57052;55.602;38.096;2022-07-18T06:16:04;5.35;;;3.53;;
69779;SDS011;57052;55.602;38.096;2022-07-18T06:18:31;7.78;;;3.78;;
69779;SDS011;57052;55.602;38.096;2022-07-18T06:20:57;5.38;;;3.10;;
69779;SDS011;57052;55.602;38.096;2022-07-18T06:23:23;6.38;;;2.90;;
69779;SDS011;57052;55.602;38.096;2022-07-18T06:25:48;5.00;;;2.75;;
69779;SDS011;57052;55.602;38.096;2022-07-18T06:28:14;4.95;;;2.60;;
69779;SDS011;57052;55.602;38.096;2022-07-18T06:30:40;4.43;;;2.35;;
69779;SDS011;57052;55.602;38.096;2022-07-18T06:33:05;4.75;;;2.60;;
69779;SDS011;57052;55.602;38.096;2022-07-18T06:35:33;4.82;;;2.78;;
69779;SDS011;57052;55.602;38.096;2022-07-18T06:37:59;5.43;;;3.05;;
69779;SDS011;57052;55.602;38.096;2022-07-18T06:40:24;5.28;;;3.22;;
69779;SDS011;57052;55.602;38.096;2022-07-18T06:42:53;6.93;;;3.70;;
69779;SDS011;57052;55.602;38.096;2022-07-18T06:45:19;5.50;;;3.40;;
69779;SDS011;57052;55.602;38.096;2022-07-18T06:47:44;6.07;;;3.25;;
69779;SDS011;57052;55.602;38.096;2022-07-18T06:50:11;5.68;;;2.88;;
69779;SDS011;57052;55.602;38.096;2022-07-18T06:52:39;3.53;;;2.47;;
69779;SDS011;57052;55.602;38.096;2022-07-18T06:55:05;5.80;;;2.70;;
69779;SDS011;57052;55.602;38.096;2022-07-18T06:57:32;4.28;;;2.53;;
69779;SDS011;57052;55.602;38.096;2022-07-18T06:59:57;4.70;;;2.47;;
69779;SDS011;57052;55.602;38.096;2022-07-18T07:02:23;4.15;;;2.55;;
69779;SDS011;57052;55.602;38.096;2022-07-18T07:04:48;5.38;;;2.50;;
69779;SDS011;57052;55.602;38.096;2022-07-18T07:07:14;4.95;;;2.40;;
69779;SDS011;57052;55.602;38.096;2022-07-18T07:09:39;2.92;;;2.10;;
69779;SDS011;57052;55.602;38.096;2022-07-18T07:12:05;3.55;;;2.20;;
69779;SDS011;57052;55.602;38.096;2022-07-18T07:14:31;4.03;;;2.40;;
69779;SDS011;57052;55.602;38.096;2022-07-18T07:16:57;3.75;;;2.13;;
69779;SDS011;57052;55.602;38.096;2022-07-18T07:19:22;3.63;;;1.95;;
69779;SDS011;57052;55.602;38.096;2022-07-18T07:21:48;4.80;;;2.40;;
69779;SDS011;57052;55.602;38.096;2022-07-18T07:24:13;4.57;;;2.33;;
69779;SDS011;57052;55.602;38.096;2022-07-18T07:26:39;4.72;;;2.50;;
69779;SDS011;57052;55.602;38.096;2022-07-18T07:29:05;4.18;;;2.10;;
69779;SDS011;57052;55.602;38.096;2022-07-18T07:31:30;3.75;;;2.20;;
69779;SDS011;57052;55.602;38.096;2022-07-18T07:33:56;4.35;;;2.10;;
69779;SDS011;57052;55.602;38.096;2022-07-18T07:36:22;4.03;;;2.10;;
69779;SDS011;57052;55.602;38.096;2022-07-18T07:38:48;3.20;;;1.80;;
69779;SDS011;57052;55.602;38.096;2022-07-18T07:41:14;4.75;;;2.40;;
69779;SDS011;57052;55.602;38.096;2022-07-18T07:43:40;6.45;;;2.22;;
69779;SDS011;57052;55.602;38.096;2022-07-18T07:46:06;3.65;;;2.13;;
69779;SDS011;57052;55.602;38.096;2022-07-18T07:48:31;5.40;;;2.28;;
69779;SDS011;57052;55.602;38.096;2022-07-18T07:50:57;3.70;;;2.08;;
69779;SDS011;57052;55.602;38.096;2022-07-18T07:53:23;3.17;;;1.70;;
69779;SDS011;57052;55.602;38.096;2022-07-18T07:55:49;2.90;;;1.92;;
69779;SDS011;57052;55.602;38.096;2022-07-18T07:58:14;3.10;;;1.80;;
69779;SDS011;57052;55.602;38.096;2022-07-18T08:00:40;3.33;;;1.88;;
69779;SDS011;57052;55.602;38.096;2022-07-18T08:03:07;2.80;;;1.90;;
69779;SDS011;57052;55.602;38.096;2022-07-18T08:05:35;3.33;;;2.00;;
69779;SDS011;57052;55.602;38.096;2022-07-18T08:08:02;4.22;;;2.60;;
69779;SDS011;57052;55.602;38.096;2022-07-18T08:10:29;3.85;;;2.13;;
69779;SDS011;57052;55.602;38.096;2022-07-18T08:12:55;6.03;;;2.00;;
69779;SDS011;57052;55.602;38.096;2022-07-18T08:15:21;3.60;;;2.00;;
69779;SDS011;57052;55.602;38.096;2022-07-18T08:17:47;3.30;;;1.80;;
69779;SDS011;57052;55.602;38.096;2022-07-18T08:20:13;4.15;;;1.88;;
69779;SDS011;57052;55.602;38.096;2022-07-18T08:25:38;2.75;;;1.90;;
69779;SDS011;57052;55.602;38.096;2022-07-18T08:28:05;2.92;;;1.75;;
69779;SDS011;57052;55.602;38.096;2022-07-18T08:30:32;4.05;;;1.90;;
69779;SDS011;57052;55.602;38.096;2022-07-18T08:32:58;3.40;;;1.90;;
69779;SDS011;57052;55.602;38.096;2022-07-18T08:35:26;2.65;;;1.67;;
69779;SDS011;57052;55.602;38.096;2022-07-18T08:37:52;4.90;;;2.00;;
69779;SDS011;57052;55.602;38.096;2022-07-18T08:40:18;2.88;;;1.90;;
69779;SDS011;57052;55.602;38.096;2022-07-18T08:42:44;3.65;;;2.03;;
69779;SDS011;57052;55.602;38.096;2022-07-18T08:45:10;3.70;;;1.90;;
69779;SDS011;57052;55.602;38.096;2022-07-18T08:47:36;4.10;;;2.10;;
69779;SDS011;57052;55.602;38.096;2022-07-18T08:50:02;4.10;;;2.13;;
69779;SDS011;57052;55.602;38.096;2022-07-18T08:52:29;3.90;;;2.10;;
69779;SDS011;57052;55.602;38.096;2022-07-18T08:54:55;4.18;;;2.00;;
69779;SDS011;57052;55.602;38.096;2022-07-18T08:57:22;3.95;;;2.38;;
69779;SDS011;57052;55.602;38.096;2022-07-18T08:59:48;3.42;;;2.20;;
69779;SDS011;57052;55.602;38.096;2022-07-18T09:02:14;5.38;;;2.13;;
69779;SDS011;57052;55.602;38.096;2022-07-18T09:04:40;5.10;;;2.50;;
69779;SDS011;57052;55.602;38.096;2022-07-18T09:07:08;3.53;;;2.33;;
69779;SDS011;57052;55.602;38.096;2022-07-18T09:09:35;2.80;;;1.90;;
69779;SDS011;57052;55.602;38.096;2022-07-18T09:17:01;4.80;;;2.60;;
69779;SDS011;57052;55.602;38.096;2022-07-18T09:19:27;4.40;;;2.60;;
69779;SDS011;57052;55.602;38.096;2022-07-18T09:21:52;3.92;;;1.98;;
69779;SDS011;57052;55.602;38.096;2022-07-18T09:24:18;2.95;;;1.95;;
69779;SDS011;57052;55.602;38.096;2022-07-18T09:26:43;3.78;;;2.10;;
69779;SDS011;57052;55.602;38.096;2022-07-18T09:29:14;5.18;;;2.13;;
69779;SDS011;57052;55.602;38.096;2022-07-18T09:31:48;3.28;;;2.35;;
69779;SDS011;57052;55.602;38.096;2022-07-18T09:34:14;3.75;;;2.28;;
69779;SDS011;57052;55.602;38.096;2022-07-18T09:36:57;3.03;;;2.03;;
69779;SDS011;57052;55.602;38.096;2022-07-18T09:39:23;2.75;;;2.05;;
69779;SDS011;57052;55.602;38.096;2022-07-18T09:41:49;3.22;;;2.05;;
69779;SDS011;57052;55.602;38.096;2022-07-18T09:44:18;3.40;;;1.70;;
69779;SDS011;57052;55.602;38.096;2022-07-18T09:47:04;3.75;;;2.20;;
69779;SDS011;57052;55.602;38.096;2022-07-18T09:49:30;3.88;;;2.50;;
69779;SDS011;57052;55.602;38.096;2022-07-18T09:52:07;3.97;;;2.50;;
69779;SDS011;57052;55.602;38.096;2022-07-18T09:54:40;4.72;;;2.95;;
69779;SDS011;57052;55.602;38.096;2022-07-18T09:57:07;4.60;;;2.80;;
69779;SDS011;57052;55.602;38.096;2022-07-18T09:59:37;5.00;;;2.80;;
69779;SDS011;57052;55.602;38.096;2022-07-18T10:02:03;3.50;;;2.10;;
69779;SDS011;57052;55.602;38.096;2022-07-18T10:04:29;4.03;;;2.30;;
69779;SDS011;57052;55.602;38.096;2022-07-18T10:06:55;3.80;;;2.40;;
69779;SDS011;57052;55.602;38.096;2022-07-18T10:09:21;4.35;;;2.20;;
69779;SDS011;57052;55.602;38.096;2022-07-18T10:11:47;6.63;;;2.60;;
69779;SDS011;57052;55.602;38.096;2022-07-18T10:14:13;3.90;;;2.10;;
69779;SDS011;57052;55.602;38.096;2022-07-18T10:16:39;4.10;;;2.30;;
69779;SDS011;57052;55.602;38.096;2022-07-18T10:19:06;5.60;;;2.45;;
69779;SDS011;57052;55.602;38.096;2022-07-18T10:21:32;3.92;;;2.08;;
69779;SDS011;57052;55.602;38.096;2022-07-18T10:23:59;7.03;;;2.35;;
69779;SDS011;57052;55.602;38.096;2022-07-18T10:26:27;3.33;;;2.40;;
69779;SDS011;57052;55.602;38.096;2022-07-18T10:31:27;3.40;;;2.15;;
69779;SDS011;57052;55.602;38.096;2022-07-18T10:36:31;2.58;;;1.80;;
69779;SDS011;57052;55.602;38.096;2022-07-18T10:39:06;3.20;;;1.88;;
69779;SDS011;57052;55.602;38.096;2022-07-18T10:47:09;3.10;;;2.20;;
69779;SDS011;57052;55.602;38.096;2022-07-18T10:50:06;7.15;;;2.30;;
69779;SDS011;57052;55.602;38.096;2022-07-18T10:57:37;4.47;;;2.25;;
69779;SDS011;57052;55.602;38.096;2022-07-18T11:00:11;5.57;;;2.30;;
69779;SDS011;57052;55.602;38.096;2022-07-18T11:02:43;3.60;;;2.38;;
69779;SDS011;57052;55.602;38.096;2022-07-18T11:16:20;4.18;;;2.20;;
69779;SDS011;57052;55.602;38.096;2022-07-18T11:21:16;2.70;;;1.90;;
69779;SDS011;57052;55.602;38.096;2022-07-18T11:23:46;3.15;;;2.28;;
69779;SDS011;57052;55.602;38.096;2022-07-18T11:26:14;3.88;;;2.05;;
69779;SDS011;57052;55.602;38.096;2022-07-18T11:28:42;4.35;;;2.17;;
69779;SDS011;57052;55.602;38.096;2022-07-18T11:31:08;3.60;;;2.20;;
69779;SDS011;57052;55.602;38.096;2022-07-18T11:33:37;2.45;;;1.80;;
69779;SDS011;57052;55.602;38.096;2022-07-18T11:36:12;4.50;;;1.70;;
69779;SDS011;57052;55.602;38.096;2022-07-18T11:38:46;3.30;;;1.70;;
69779;SDS011;57052;55.602;38.096;2022-07-18T11:41:14;4.38;;;1.90;;
69779;SDS011;57052;55.602;38.096;2022-07-18T11:43:40;3.15;;;1.67;;
69779;SDS011;57052;55.602;38.096;2022-07-18T11:46:10;3.47;;;1.55;;
69779;SDS011;57052;55.602;38.096;2022-07-18T11:48:39;2.28;;;1.58;;
69779;SDS011;57052;55.602;38.096;2022-07-18T11:51:09;2.78;;;1.67;;
69779;SDS011;57052;55.602;38.096;2022-07-18T11:53:36;2.58;;;1.80;;
69779;SDS011;57052;55.602;38.096;2022-07-18T11:56:08;2.72;;;1.77;;
69779;SDS011;57052;55.602;38.096;2022-07-18T11:58:35;3.35;;;1.73;;
69779;SDS011;57052;55.602;38.096;2022-07-18T12:01:05;3.67;;;1.50;;
69779;SDS011;57052;55.602;38.096;2022-07-18T12:03:50;3.00;;;1.73;;
69779;SDS011;57052;55.602;38.096;2022-07-18T12:06:20;3.22;;;1.80;;
69779;SDS011;57052;55.602;38.096;2022-07-18T12:08:51;3.20;;;1.60;;
69779;SDS011;57052;55.602;38.096;2022-07-18T12:13:59;3.78;;;1.85;;
69779;SDS011;57052;55.602;38.096;2022-07-18T12:18:59;2.67;;;1.60;;
69779;SDS011;57052;55.602;38.096;2022-07-18T12:21:39;3.50;;;1.70;;
69779;SDS011;57052;55.602;38.096;2022-07-18T12:24:26;2.92;;;1.83;;
69779;SDS011;57052;55.602;38.096;2022-07-18T12:32:47;2.67;;;1.63;;
69779;SDS011;57052;55.602;38.096;2022-07-18T12:35:27;3.17;;;1.67;;
69779;SDS011;57052;55.602;38.096;2022-07-18T12:37:57;3.80;;;1.80;;
69779;SDS011;57052;55.602;38.096;2022-07-18T12:40:37;2.35;;;1.60;;
69779;SDS011;57052;55.602;38.096;2022-07-18T12:43:28;3.42;;;1.90;;
69779;SDS011;57052;55.602;38.096;2022-07-18T12:46:06;3.40;;;1.80;;
69779;SDS011;57052;55.602;38.096;2022-07-18T12:48:33;2.80;;;1.60;;
69779;SDS011;57052;55.602;38.096;2022-07-18T12:51:01;3.28;;;1.60;;
69779;SDS011;57052;55.602;38.096;2022-07-18T12:53:33;3.60;;;1.65;;
69779;SDS011;57052;55.602;38.096;2022-07-18T12:56:00;3.28;;;1.70;;
69779;SDS011;57052;55.602;38.096;2022-07-18T12:58:26;3.97;;;1.75;;
69779;SDS011;57052;55.602;38.096;2022-07-18T13:00:52;3.20;;;1.70;;
69779;SDS011;57052;55.602;38.096;2022-07-18T13:03:20;3.70;;;1.83;;
69779;SDS011;57052;55.602;38.096;2022-07-18T13:05:46;2.42;;;1.38;;
69779;SDS011;57052;55.602;38.096;2022-07-18T13:08:11;3.22;;;1.45;;
69779;SDS011;57052;55.602;38.096;2022-07-18T13:10:38;2.63;;;1.63;;
69779;SDS011;57052;55.602;38.096;2022-07-18T13:13:04;1.83;;;1.60;;
69779;SDS011;57052;55.602;38.096;2022-07-18T13:15:31;3.22;;;1.40;;
69779;SDS011;57052;55.602;38.096;2022-07-18T13:17:57;2.13;;;1.50;;
69779;SDS011;57052;55.602;38.096;2022-07-18T13:20:23;2.80;;;1.60;;
69779;SDS011;57052;55.602;38.096;2022-07-18T13:22:49;2.45;;;1.40;;
69779;SDS011;57052;55.602;38.096;2022-07-18T13:25:14;2.33;;;1.50;;
69779;SDS011;57052;55.602;38.096;2022-07-18T13:27:40;2.28;;;1.60;;
69779;SDS011;57052;55.602;38.096;2022-07-18T13:30:06;5.63;;;1.58;;
69779;SDS011;57052;55.602;38.096;2022-07-18T13:32:34;2.40;;;1.45;;
69779;SDS011;57052;55.602;38.096;2022-07-18T13:35:00;3.33;;;1.60;;
69779;SDS011;57052;55.602;38.096;2022-07-18T13:37:26;4.47;;;1.83;;
69779;SDS011;57052;55.602;38.096;2022-07-18T13:39:52;16.00;;;2.00;;
69779;SDS011;57052;55.602;38.096;2022-07-18T13:42:18;3.33;;;1.83;;
69779;SDS011;57052;55.602;38.096;2022-07-18T13:44:43;3.65;;;1.75;;
69779;SDS011;57052;55.602;38.096;2022-07-18T13:47:12;4.68;;;1.90;;
69779;SDS011;57052;55.602;38.096;2022-07-18T13:49:38;7.25;;;2.00;;
69779;SDS011;57052;55.602;38.096;2022-07-18T13:52:05;2.83;;;1.95;;
69779;SDS011;57052;55.602;38.096;2022-07-18T13:54:31;3.42;;;1.90;;
69779;SDS011;57052;55.602;38.096;2022-07-18T13:56:56;4.45;;;1.73;;
69779;SDS011;57052;55.602;38.096;2022-07-18T13:59:22;3.65;;;1.80;;
69779;SDS011;57052;55.602;38.096;2022-07-18T14:01:48;6.10;;;3.67;;
69779;SDS011;57052;55.602;38.096;2022-07-18T14:04:15;5.22;;;2.10;;
69779;SDS011;57052;55.602;38.096;2022-07-18T14:06:41;5.85;;;1.90;;
69779;SDS011;57052;55.602;38.096;2022-07-18T14:09:06;4.82;;;2.63;;
69779;SDS011;57052;55.602;38.096;2022-07-18T14:11:32;5.93;;;2.40;;
69779;SDS011;57052;55.602;38.096;2022-07-18T14:14:01;5.32;;;2.15;;
69779;SDS011;57052;55.602;38.096;2022-07-18T14:16:28;10.10;;;2.50;;
69779;SDS011;57052;55.602;38.096;2022-07-18T14:18:54;4.85;;;2.42;;
69779;SDS011;57052;55.602;38.096;2022-07-18T14:21:20;9.50;;;2.30;;
69779;SDS011;57052;55.602;38.096;2022-07-18T14:23:46;4.82;;;2.00;;
69779;SDS011;57052;55.602;38.096;2022-07-18T14:26:11;5.90;;;2.25;;
69779;SDS011;57052;55.602;38.096;2022-07-18T14:28:37;3.95;;;1.90;;
69779;SDS011;57052;55.602;38.096;2022-07-18T14:31:03;5.10;;;1.60;;
69779;SDS011;57052;55.602;38.096;2022-07-18T14:33:28;3.95;;;2.00;;
69779;SDS011;57052;55.602;38.096;2022-07-18T14:35:54;5.57;;;1.55;;
69779;SDS011;57052;55.602;38.096;2022-07-18T14:38:19;4.90;;;1.45;;
69779;SDS011;57052;55.602;38.096;2022-07-18T14:40:45;3.10;;;1.73;;
69779;SDS011;57052;55.602;38.096;2022-07-18T14:43:11;2.80;;;1.70;;
69779;SDS011;57052;55.602;38.096;2022-07-18T14:45:36;6.10;;;2.03;;
69779;SDS011;57052;55.602;38.096;2022-07-18T14:48:02;4.85;;;2.10;;
69779;SDS011;57052;55.602;38.096;2022-07-18T14:50:28;4.28;;;1.88;;
69779;SDS011;57052;55.602;38.096;2022-07-18T14:52:53;4.47;;;1.95;;
69779;SDS011;57052;55.602;38.096;2022-07-18T14:55:19;9.25;;;1.75;;
69779;SDS011;57052;55.602;38.096;2022-07-18T14:57:44;3.30;;;2.00;;
69779;SDS011;57052;55.602;38.096;2022-07-18T15:00:10;4.05;;;1.80;;
69779;SDS011;57052;55.602;38.096;2022-07-18T15:02:37;4.57;;;1.70;;
69779;SDS011;57052;55.602;38.096;2022-07-18T15:05:03;2.88;;;1.50;;
69779;SDS011;57052;55.602;38.096;2022-07-18T15:07:30;3.72;;;1.55;;
69779;SDS011;57052;55.602;38.096;2022-07-18T15:09:55;3.42;;;1.65;;
69779;SDS011;57052;55.602;38.096;2022-07-18T15:12:21;2.45;;;1.52;;
69779;SDS011;57052;55.602;38.096;2022-07-18T15:14:47;2.75;;;1.70;;
69779;SDS011;57052;55.602;38.096;2022-07-18T15:17:12;3.15;;;1.67;;